Aeroporto :
LOGIN :

Iscrizione | Disclaimer

   EN    FR    IT 

 










Sommario :    VFR   VFR Marginale   IFR   IFR Intensivo   IFR Molto Intensivo
Visibilità : 
Base nubi : 
>= 8 km
>= 3000ft
5 / 8 km
1000 / 3000 ft
1500m / 5 km
500 / 1000 ft
800 / 1500m
200 / 500 ft
< 800m
< 200 ft
Simboli :   Temporali  Nebbia  Neve Forte  Precipitazioni Forti  Vento > 20 kt
SIGMETs :   Varie  Temporali  Ghiacco  Turbolenza  Onda orograficha  Ceneri Vulcaniche






- Altitudine del aeroporto : 1585 ft
- Codice IATA : SIR


LSGS - Sion

ULTIMO METAR :
  • 190350Z AUTO 07003KT CAVOK M03/M05 Q1028

METARs OBSOLETI :
  • 190320Z AUTO 00000KT CAVOK M03/M06 Q1028
  • 190250Z AUTO 00000KT CAVOK M03/M06 Q1028
  • 190220Z AUTO VRB02KT CAVOK M03/M06 Q1028
  • 190150Z AUTO 11002KT CAVOK M02/M06 Q1028
  • 190120Z AUTO 08003KT CAVOK M03/M06 Q1027

TAF TAF LSGS
Valido dal 19 a 03 ore il 19 a 12 ore UTC


190225Z 1903/1912 VRB02KT CAVOK



MetMap, La meteo Aeronautica in un colpo d'occhio ! - Copyright ORBIFLY Dicembre 2007 - Disclaimer

ORBIFLY MET'MAP TEAM :

Programmazione e sviluppo : Alexandra Zaïnal
Concezione : Baudouin d'Aumeries
Aiuto per la programmazione : Marc-Olivier Méhu
Supporto tecnico e logistico : Manuel Goepfert
Aiuto per la traduzione : Arnaldo La Scala

Contatto : metmap@orbifly.com




FONTI E CREDITI :

   NOAA